sensor_id;sensor_type;location;lat;lon;timestamp;temperature;humidity
4090;DHT22;2059;48.538;12.146;2022-08-19T00:01:42;22.30;99.90
4090;DHT22;2059;48.538;12.146;2022-08-19T00:06:45;22.40;99.90
4090;DHT22;2059;48.538;12.146;2022-08-19T00:11:49;22.50;99.90
4090;DHT22;2059;48.538;12.146;2022-08-19T00:16:52;22.40;99.90
4090;DHT22;2059;48.538;12.146;2022-08-19T00:21:54;22.40;99.90
4090;DHT22;2059;48.538;12.146;2022-08-19T00:26:58;22.30;99.90
4090;DHT22;2059;48.538;12.146;2022-08-19T00:32:02;22.40;99.90
4090;DHT22;2059;48.538;12.146;2022-08-19T00:37:04;22.50;99.90
4090;DHT22;2059;48.538;12.146;2022-08-19T00:42:07;22.40;99.90
4090;DHT22;2059;48.538;12.146;2022-08-19T00:47:09;22.40;99.90
4090;DHT22;2059;48.538;12.146;2022-08-19T00:52:15;22.20;99.90
4090;DHT22;2059;48.538;12.146;2022-08-19T00:57:24;22.40;99.90
4090;DHT22;2059;48.538;12.146;2022-08-19T01:02:28;22.30;99.90
4090;DHT22;2059;48.538;12.146;2022-08-19T01:07:31;22.20;99.90
4090;DHT22;2059;48.538;12.146;2022-08-19T01:12:34;22.40;99.90
4090;DHT22;2059;48.538;12.146;2022-08-19T01:17:38;22.30;99.90
4090;DHT22;2059;48.538;12.146;2022-08-19T01:22:44;22.20;99.90
4090;DHT22;2059;48.538;12.146;2022-08-19T01:27:49;22.50;99.90
4090;DHT22;2059;48.538;12.146;2022-08-19T01:32:52;22.20;99.90
4090;DHT22;2059;48.538;12.146;2022-08-19T01:37:58;22.30;99.90
4090;DHT22;2059;48.538;12.146;2022-08-19T01:43:00;22.30;99.90
4090;DHT22;2059;48.538;12.146;2022-08-19T01:48:03;22.30;99.90
4090;DHT22;2059;48.538;12.146;2022-08-19T01:53:09;22.30;99.90
4090;DHT22;2059;48.538;12.146;2022-08-19T01:58:14;22.40;99.90
4090;DHT22;2059;48.538;12.146;2022-08-19T02:03:16;22.40;99.90
4090;DHT22;2059;48.538;12.146;2022-08-19T02:08:20;22.30;99.90
4090;DHT22;2059;48.538;12.146;2022-08-19T02:13:22;22.40;99.90
4090;DHT22;2059;48.538;12.146;2022-08-19T02:18:25;22.20;99.90
4090;DHT22;2059;48.538;12.146;2022-08-19T02:23:29;22.30;99.90
4090;DHT22;2059;48.538;12.146;2022-08-19T02:28:31;22.20;99.90
4090;DHT22;2059;48.538;12.146;2022-08-19T02:33:32;22.40;99.90
4090;DHT22;2059;48.538;12.146;2022-08-19T02:38:36;22.40;99.90
4090;DHT22;2059;48.538;12.146;2022-08-19T02:43:37;22.20;99.90
4090;DHT22;2059;48.538;12.146;2022-08-19T02:48:40;22.20;99.90
4090;DHT22;2059;48.538;12.146;2022-08-19T02:53:43;22.20;99.90
4090;DHT22;2059;48.538;12.146;2022-08-19T02:58:45;22.30;99.90
4090;DHT22;2059;48.538;12.146;2022-08-19T03:03:48;22.20;99.90
4090;DHT22;2059;48.538;12.146;2022-08-19T03:08:52;22.10;99.90
4090;DHT22;2059;48.538;12.146;2022-08-19T03:13:55;22.20;99.90
4090;DHT22;2059;48.538;12.146;2022-08-19T03:18:58;22.10;99.90
4090;DHT22;2059;48.538;12.146;2022-08-19T03:24:04;22.10;99.90
4090;DHT22;2059;48.538;12.146;2022-08-19T03:29:06;22.10;99.90
4090;DHT22;2059;48.538;12.146;2022-08-19T03:34:14;22.20;99.90
4090;DHT22;2059;48.538;12.146;2022-08-19T03:39:19;22.20;99.90
4090;DHT22;2059;48.538;12.146;2022-08-19T03:44:22;22.20;99.90
4090;DHT22;2059;48.538;12.146;2022-08-19T03:49:25;22.30;99.90
4090;DHT22;2059;48.538;12.146;2022-08-19T03:54:29;22.10;99.90
4090;DHT22;2059;48.538;12.146;2022-08-19T03:59:32;22.10;99.90
4090;DHT22;2059;48.538;12.146;2022-08-19T04:04:37;22.00;99.90
4090;DHT22;2059;48.538;12.146;2022-08-19T04:09:40;22.10;99.90
4090;DHT22;2059;48.538;12.146;2022-08-19T04:14:42;22.30;99.90
4090;DHT22;2059;48.538;12.146;2022-08-19T04:19:44;22.10;99.90
4090;DHT22;2059;48.538;12.146;2022-08-19T04:24:48;22.10;99.90
4090;DHT22;2059;48.538;12.146;2022-08-19T04:29:49;22.10;99.90
4090;DHT22;2059;48.538;12.146;2022-08-19T04:34:52;22.10;99.90
4090;DHT22;2059;48.538;12.146;2022-08-19T04:40:01;22.20;99.90
4090;DHT22;2059;48.538;12.146;2022-08-19T04:45:20;22.30;99.90
4090;DHT22;2059;48.538;12.146;2022-08-19T04:50:22;22.20;99.90
4090;DHT22;2059;48.538;12.146;2022-08-19T04:55:25;22.10;99.90
4090;DHT22;2059;48.538;12.146;2022-08-19T05:00:27;22.20;99.90
4090;DHT22;2059;48.538;12.146;2022-08-19T05:05:29;22.20;99.90
4090;DHT22;2059;48.538;12.146;2022-08-19T05:10:34;22.20;99.90
4090;DHT22;2059;48.538;12.146;2022-08-19T05:15:36;22.20;99.90
4090;DHT22;2059;48.538;12.146;2022-08-19T05:20:38;22.20;99.90
4090;DHT22;2059;48.538;12.146;2022-08-19T05:25:59;22.30;99.90
4090;DHT22;2059;48.538;12.146;2022-08-19T05:31:01;22.20;99.90
4090;DHT22;2059;48.538;12.146;2022-08-19T05:36:03;22.20;99.90
4090;DHT22;2059;48.538;12.146;2022-08-19T05:41:08;22.20;99.90
4090;DHT22;2059;48.538;12.146;2022-08-19T05:46:17;22.30;99.90
4090;DHT22;2059;48.538;12.146;2022-08-19T05:51:19;22.20;99.90
4090;DHT22;2059;48.538;12.146;2022-08-19T05:56:24;22.20;99.90
4090;DHT22;2059;48.538;12.146;2022-08-19T06:01:26;22.20;99.90
4090;DHT22;2059;48.538;12.146;2022-08-19T06:06:28;22.20;99.90
4090;DHT22;2059;48.538;12.146;2022-08-19T06:11:36;22.20;99.90
4090;DHT22;2059;48.538;12.146;2022-08-19T06:16:40;22.20;99.90
4090;DHT22;2059;48.538;12.146;2022-08-19T06:21:43;22.20;99.90
4090;DHT22;2059;48.538;12.146;2022-08-19T06:26:48;22.20;99.90
4090;DHT22;2059;48.538;12.146;2022-08-19T06:31:53;22.20;99.90
4090;DHT22;2059;48.538;12.146;2022-08-19T06:36:58;22.20;99.90
4090;DHT22;2059;48.538;12.146;2022-08-19T06:42:04;22.10;99.90
4090;DHT22;2059;48.538;12.146;2022-08-19T06:47:10;22.10;99.90
4090;DHT22;2059;48.538;12.146;2022-08-19T06:52:13;22.10;99.90
4090;DHT22;2059;48.538;12.146;2022-08-19T06:57:16;22.00;99.90
4090;DHT22;2059;48.538;12.146;2022-08-19T07:02:19;21.90;99.90
4090;DHT22;2059;48.538;12.146;2022-08-19T07:07:21;22.10;99.90
4090;DHT22;2059;48.538;12.146;2022-08-19T07:12:25;22.10;99.90
4090;DHT22;2059;48.538;12.146;2022-08-19T07:17:27;22.10;99.90
4090;DHT22;2059;48.538;12.146;2022-08-19T07:22:29;22.10;99.90
4090;DHT22;2059;48.538;12.146;2022-08-19T07:27:32;22.20;99.90
4090;DHT22;2059;48.538;12.146;2022-08-19T07:32:43;22.20;99.90
4090;DHT22;2059;48.538;12.146;2022-08-19T07:37:45;22.40;99.90
4090;DHT22;2059;48.538;12.146;2022-08-19T07:42:48;22.40;99.90
4090;DHT22;2059;48.538;12.146;2022-08-19T07:47:50;22.40;99.90
4090;DHT22;2059;48.538;12.146;2022-08-19T07:52:52;22.50;99.90
4090;DHT22;2059;48.538;12.146;2022-08-19T07:57:56;22.80;99.90
4090;DHT22;2059;48.538;12.146;2022-08-19T08:02:58;22.90;99.90
4090;DHT22;2059;48.538;12.146;2022-08-19T08:07:59;23.30;99.90
4090;DHT22;2059;48.538;12.146;2022-08-19T08:13:20;23.50;99.90
4090;DHT22;2059;48.538;12.146;2022-08-19T08:18:22;23.80;99.90
4090;DHT22;2059;48.538;12.146;2022-08-19T08:23:24;23.90;99.90
4090;DHT22;2059;48.538;12.146;2022-08-19T08:28:28;24.10;99.90
4090;DHT22;2059;48.538;12.146;2022-08-19T08:33:31;24.30;99.90
4090;DHT22;2059;48.538;12.146;2022-08-19T08:38:33;24.30;99.90
4090;DHT22;2059;48.538;12.146;2022-08-19T08:43:38;24.30;99.90
4090;DHT22;2059;48.538;12.146;2022-08-19T08:48:48;23.90;99.90
4090;DHT22;2059;48.538;12.146;2022-08-19T08:53:51;23.70;99.90
4090;DHT22;2059;48.538;12.146;2022-08-19T08:59:00;23.50;99.90
4090;DHT22;2059;48.538;12.146;2022-08-19T09:04:04;23.40;99.90
4090;DHT22;2059;48.538;12.146;2022-08-19T09:09:14;23.50;99.90
4090;DHT22;2059;48.538;12.146;2022-08-19T09:14:32;23.30;99.90
4090;DHT22;2059;48.538;12.146;2022-08-19T09:19:34;23.40;99.90
4090;DHT22;2059;48.538;12.146;2022-08-19T09:24:36;23.10;99.90
4090;DHT22;2059;48.538;12.146;2022-08-19T09:29:40;23.20;99.90
4090;DHT22;2059;48.538;12.146;2022-08-19T09:34:41;23.00;99.90
4090;DHT22;2059;48.538;12.146;2022-08-19T09:39:43;22.80;99.90
4090;DHT22;2059;48.538;12.146;2022-08-19T09:44:46;22.60;99.90
4090;DHT22;2059;48.538;12.146;2022-08-19T09:49:48;22.70;99.90
4090;DHT22;2059;48.538;12.146;2022-08-19T09:54:52;22.60;99.90
4090;DHT22;2059;48.538;12.146;2022-08-19T09:59:55;22.60;99.90
4090;DHT22;2059;48.538;12.146;2022-08-19T10:04:57;22.60;99.90
4090;DHT22;2059;48.538;12.146;2022-08-19T10:10:16;22.70;99.90
4090;DHT22;2059;48.538;12.146;2022-08-19T10:15:20;22.80;99.90
4090;DHT22;2059;48.538;12.146;2022-08-19T10:20:22;22.80;99.90
4090;DHT22;2059;48.538;12.146;2022-08-19T10:25:24;23.10;99.90
4090;DHT22;2059;48.538;12.146;2022-08-19T10:30:28;23.10;99.90
4090;DHT22;2059;48.538;12.146;2022-08-19T10:35:30;23.20;99.90
4090;DHT22;2059;48.538;12.146;2022-08-19T10:40:32;23.20;99.90
4090;DHT22;2059;48.538;12.146;2022-08-19T10:45:35;23.30;99.90
4090;DHT22;2059;48.538;12.146;2022-08-19T10:50:37;23.50;99.90
4090;DHT22;2059;48.538;12.146;2022-08-19T10:55:57;23.40;99.90
4090;DHT22;2059;48.538;12.146;2022-08-19T11:01:22;23.50;99.90
4090;DHT22;2059;48.538;12.146;2022-08-19T11:06:24;23.50;99.90
4090;DHT22;2059;48.538;12.146;2022-08-19T11:11:26;23.60;99.90
4090;DHT22;2059;48.538;12.146;2022-08-19T11:16:30;23.80;99.90
4090;DHT22;2059;48.538;12.146;2022-08-19T11:21:34;23.80;99.90
4090;DHT22;2059;48.538;12.146;2022-08-19T11:26:37;23.60;99.90
4090;DHT22;2059;48.538;12.146;2022-08-19T11:31:42;23.50;99.90
4090;DHT22;2059;48.538;12.146;2022-08-19T11:36:46;23.50;99.90
4090;DHT22;2059;48.538;12.146;2022-08-19T11:41:49;23.40;99.90
4090;DHT22;2059;48.538;12.146;2022-08-19T11:46:52;23.50;99.90
4090;DHT22;2059;48.538;12.146;2022-08-19T11:51:54;23.60;99.90
4090;DHT22;2059;48.538;12.146;2022-08-19T11:56:55;23.50;99.90
4090;DHT22;2059;48.538;12.146;2022-08-19T12:01:59;23.60;99.90
4090;DHT22;2059;48.538;12.146;2022-08-19T12:07:01;23.80;99.90
4090;DHT22;2059;48.538;12.146;2022-08-19T12:12:03;23.70;99.90
4090;DHT22;2059;48.538;12.146;2022-08-19T12:17:07;23.50;99.90
4090;DHT22;2059;48.538;12.146;2022-08-19T12:22:09;23.40;99.90
4090;DHT22;2059;48.538;12.146;2022-08-19T12:27:11;23.70;99.90
4090;DHT22;2059;48.538;12.146;2022-08-19T12:32:15;24.20;99.90
4090;DHT22;2059;48.538;12.146;2022-08-19T12:37:17;24.60;99.90
4090;DHT22;2059;48.538;12.146;2022-08-19T12:42:19;24.90;99.90
4090;DHT22;2059;48.538;12.146;2022-08-19T12:47:24;25.40;99.90
4090;DHT22;2059;48.538;12.146;2022-08-19T12:52:27;25.90;99.90
4090;DHT22;2059;48.538;12.146;2022-08-19T12:57:28;26.30;99.90
4090;DHT22;2059;48.538;12.146;2022-08-19T13:02:33;26.20;99.90
4090;DHT22;2059;48.538;12.146;2022-08-19T13:07:35;25.80;99.90
4090;DHT22;2059;48.538;12.146;2022-08-19T13:12:37;25.50;99.90
4090;DHT22;2059;48.538;12.146;2022-08-19T13:17:41;25.20;99.90
4090;DHT22;2059;48.538;12.146;2022-08-19T13:22:43;24.90;99.90
4090;DHT22;2059;48.538;12.146;2022-08-19T13:27:46;24.70;99.90
4090;DHT22;2059;48.538;12.146;2022-08-19T13:32:49;24.40;99.90
4090;DHT22;2059;48.538;12.146;2022-08-19T13:38:09;24.30;99.90
4090;DHT22;2059;48.538;12.146;2022-08-19T13:43:11;24.30;99.90
4090;DHT22;2059;48.538;12.146;2022-08-19T13:48:15;24.20;99.90
4090;DHT22;2059;48.538;12.146;2022-08-19T13:53:18;24.20;99.90
4090;DHT22;2059;48.538;12.146;2022-08-19T13:58:20;24.00;99.90
4090;DHT22;2059;48.538;12.146;2022-08-19T14:03:24;23.70;99.90
4090;DHT22;2059;48.538;12.146;2022-08-19T14:08:26;23.60;99.90
4090;DHT22;2059;48.538;12.146;2022-08-19T14:13:28;23.60;99.90
4090;DHT22;2059;48.538;12.146;2022-08-19T14:18:32;23.70;99.90
4090;DHT22;2059;48.538;12.146;2022-08-19T14:23:34;23.60;99.90
4090;DHT22;2059;48.538;12.146;2022-08-19T14:28:36;23.50;99.90
4090;DHT22;2059;48.538;12.146;2022-08-19T14:33:42;23.70;99.90
4090;DHT22;2059;48.538;12.146;2022-08-19T14:38:44;23.70;99.90
4090;DHT22;2059;48.538;12.146;2022-08-19T14:43:47;23.90;99.90
4090;DHT22;2059;48.538;12.146;2022-08-19T14:48:52;24.00;99.90
4090;DHT22;2059;48.538;12.146;2022-08-19T14:53:54;24.20;99.90
4090;DHT22;2059;48.538;12.146;2022-08-19T14:58:57;24.40;99.90
4090;DHT22;2059;48.538;12.146;2022-08-19T15:04:03;24.50;99.90
4090;DHT22;2059;48.538;12.146;2022-08-19T15:09:05;24.50;99.90
4090;DHT22;2059;48.538;12.146;2022-08-19T15:14:06;24.40;99.90
4090;DHT22;2059;48.538;12.146;2022-08-19T15:19:13;24.60;99.90
4090;DHT22;2059;48.538;12.146;2022-08-19T15:24:15;24.60;99.90
4090;DHT22;2059;48.538;12.146;2022-08-19T15:29:17;24.90;99.90
4090;DHT22;2059;48.538;12.146;2022-08-19T15:34:21;25.40;99.90
4090;DHT22;2059;48.538;12.146;2022-08-19T15:39:22;26.10;99.90
4090;DHT22;2059;48.538;12.146;2022-08-19T15:44:24;26.20;99.90
4090;DHT22;2059;48.538;12.146;2022-08-19T15:49:28;26.10;99.90
4090;DHT22;2059;48.538;12.146;2022-08-19T15:54:30;25.80;99.90
4090;DHT22;2059;48.538;12.146;2022-08-19T15:59:32;25.40;99.90
4090;DHT22;2059;48.538;12.146;2022-08-19T16:04:53;25.00;99.90
4090;DHT22;2059;48.538;12.146;2022-08-19T16:10:12;25.00;99.90
4090;DHT22;2059;48.538;12.146;2022-08-19T16:15:14;24.90;99.90
4090;DHT22;2059;48.538;12.146;2022-08-19T16:20:18;25.00;99.90
4090;DHT22;2059;48.538;12.146;2022-08-19T16:25:21;25.10;99.90
4090;DHT22;2059;48.538;12.146;2022-08-19T16:30:26;25.30;99.90
4090;DHT22;2059;48.538;12.146;2022-08-19T16:35:30;25.70;99.90
4090;DHT22;2059;48.538;12.146;2022-08-19T16:40:32;25.40;99.90
4090;DHT22;2059;48.538;12.146;2022-08-19T16:45:35;24.80;99.90
4090;DHT22;2059;48.538;12.146;2022-08-19T16:50:38;24.20;99.90
4090;DHT22;2059;48.538;12.146;2022-08-19T16:55:41;23.80;99.90
4090;DHT22;2059;48.538;12.146;2022-08-19T17:00:44;23.80;99.90
4090;DHT22;2059;48.538;12.146;2022-08-19T17:05:49;23.90;99.90
4090;DHT22;2059;48.538;12.146;2022-08-19T17:10:52;23.80;99.90
4090;DHT22;2059;48.538;12.146;2022-08-19T17:15:55;23.70;99.90
4090;DHT22;2059;48.538;12.146;2022-08-19T17:20:59;23.50;99.90
4090;DHT22;2059;48.538;12.146;2022-08-19T17:26:01;23.40;99.90
4090;DHT22;2059;48.538;12.146;2022-08-19T17:31:04;23.30;99.90
4090;DHT22;2059;48.538;12.146;2022-08-19T17:36:08;23.30;99.90
4090;DHT22;2059;48.538;12.146;2022-08-19T17:41:10;23.30;99.90
4090;DHT22;2059;48.538;12.146;2022-08-19T17:46:12;23.00;99.90
4090;DHT22;2059;48.538;12.146;2022-08-19T17:51:20;23.00;99.90
4090;DHT22;2059;48.538;12.146;2022-08-19T17:56:23;22.80;99.90
4090;DHT22;2059;48.538;12.146;2022-08-19T18:01:25;22.90;99.90
4090;DHT22;2059;48.538;12.146;2022-08-19T18:06:29;22.60;99.90
4090;DHT22;2059;48.538;12.146;2022-08-19T18:11:31;22.50;99.90
4090;DHT22;2059;48.538;12.146;2022-08-19T18:16:33;22.50;99.90
4090;DHT22;2059;48.538;12.146;2022-08-19T18:21:36;22.30;99.90
4090;DHT22;2059;48.538;12.146;2022-08-19T18:26:39;22.20;99.90
4090;DHT22;2059;48.538;12.146;2022-08-19T18:31:41;22.20;99.90
4090;DHT22;2059;48.538;12.146;2022-08-19T18:36:44;22.20;99.90
4090;DHT22;2059;48.538;12.146;2022-08-19T18:41:46;22.10;99.90
4090;DHT22;2059;48.538;12.146;2022-08-19T18:47:05;21.90;99.90
4090;DHT22;2059;48.538;12.146;2022-08-19T18:52:26;21.80;99.90
4090;DHT22;2059;48.538;12.146;2022-08-19T18:57:28;21.60;99.90
4090;DHT22;2059;48.538;12.146;2022-08-19T19:02:35;21.50;99.90
4090;DHT22;2059;48.538;12.146;2022-08-19T19:07:40;21.50;99.90
4090;DHT22;2059;48.538;12.146;2022-08-19T19:12:43;21.40;99.90
4090;DHT22;2059;48.538;12.146;2022-08-19T19:17:45;21.30;99.90
4090;DHT22;2059;48.538;12.146;2022-08-19T19:22:48;21.50;99.90
4090;DHT22;2059;48.538;12.146;2022-08-19T19:27:50;21.50;99.90
4090;DHT22;2059;48.538;12.146;2022-08-19T19:32:54;21.30;99.90
4090;DHT22;2059;48.538;12.146;2022-08-19T19:37:57;21.20;99.90
4090;DHT22;2059;48.538;12.146;2022-08-19T19:42:59;21.20;99.90
4090;DHT22;2059;48.538;12.146;2022-08-19T19:48:04;21.20;99.90
4090;DHT22;2059;48.538;12.146;2022-08-19T19:53:09;21.20;99.90
4090;DHT22;2059;48.538;12.146;2022-08-19T19:58:12;21.20;99.90
4090;DHT22;2059;48.538;12.146;2022-08-19T20:03:14;21.30;99.90
4090;DHT22;2059;48.538;12.146;2022-08-19T20:08:19;21.20;99.90
4090;DHT22;2059;48.538;12.146;2022-08-19T20:13:38;21.20;99.90
4090;DHT22;2059;48.538;12.146;2022-08-19T20:18:40;21.20;99.90
4090;DHT22;2059;48.538;12.146;2022-08-19T20:23:44;21.20;99.90
4090;DHT22;2059;48.538;12.146;2022-08-19T20:28:46;21.10;99.90
4090;DHT22;2059;48.538;12.146;2022-08-19T20:33:49;21.10;99.90
4090;DHT22;2059;48.538;12.146;2022-08-19T20:38:52;21.00;99.90
4090;DHT22;2059;48.538;12.146;2022-08-19T20:43:54;21.10;99.90
4090;DHT22;2059;48.538;12.146;2022-08-19T20:48:56;21.10;99.90
4090;DHT22;2059;48.538;12.146;2022-08-19T20:54:00;21.10;99.90
4090;DHT22;2059;48.538;12.146;2022-08-19T20:59:02;20.90;99.90
4090;DHT22;2059;48.538;12.146;2022-08-19T21:04:09;20.90;99.90
4090;DHT22;2059;48.538;12.146;2022-08-19T21:09:12;20.90;99.90
4090;DHT22;2059;48.538;12.146;2022-08-19T21:14:16;21.00;99.90
4090;DHT22;2059;48.538;12.146;2022-08-19T21:19:18;20.80;99.90
4090;DHT22;2059;48.538;12.146;2022-08-19T21:24:21;20.90;99.90
4090;DHT22;2059;48.538;12.146;2022-08-19T21:29:23;20.70;99.90
4090;DHT22;2059;48.538;12.146;2022-08-19T21:34:25;20.70;99.90
4090;DHT22;2059;48.538;12.146;2022-08-19T21:39:28;20.50;99.90
4090;DHT22;2059;48.538;12.146;2022-08-19T21:44:30;20.30;99.90
4090;DHT22;2059;48.538;12.146;2022-08-19T21:49:32;20.20;99.90
4090;DHT22;2059;48.538;12.146;2022-08-19T21:54:36;20.20;99.90
4090;DHT22;2059;48.538;12.146;2022-08-19T21:59:37;20.10;99.90
4090;DHT22;2059;48.538;12.146;2022-08-19T22:04:40;20.20;99.90
4090;DHT22;2059;48.538;12.146;2022-08-19T22:09:44;20.20;99.90
4090;DHT22;2059;48.538;12.146;2022-08-19T22:14:46;20.20;99.90
4090;DHT22;2059;48.538;12.146;2022-08-19T22:19:48;20.10;99.90
4090;DHT22;2059;48.538;12.146;2022-08-19T22:24:52;20.30;99.90
4090;DHT22;2059;48.538;12.146;2022-08-19T22:29:54;20.20;99.90
4090;DHT22;2059;48.538;12.146;2022-08-19T22:34:56;19.90;99.90
4090;DHT22;2059;48.538;12.146;2022-08-19T22:40:00;19.70;99.90
4090;DHT22;2059;48.538;12.146;2022-08-19T22:45:04;19.70;99.90
4090;DHT22;2059;48.538;12.146;2022-08-19T22:50:08;19.90;99.90
4090;DHT22;2059;48.538;12.146;2022-08-19T22:55:11;19.80;99.90
4090;DHT22;2059;48.538;12.146;2022-08-19T23:00:14;19.80;99.90
4090;DHT22;2059;48.538;12.146;2022-08-19T23:05:16;19.70;99.90
4090;DHT22;2059;48.538;12.146;2022-08-19T23:10:20;19.70;99.90
4090;DHT22;2059;48.538;12.146;2022-08-19T23:15:25;19.60;99.90
4090;DHT22;2059;48.538;12.146;2022-08-19T23:20:30;19.70;99.90
4090;DHT22;2059;48.538;12.146;2022-08-19T23:25:35;19.60;99.90
4090;DHT22;2059;48.538;12.146;2022-08-19T23:30:43;19.60;99.90
4090;DHT22;2059;48.538;12.146;2022-08-19T23:35:45;19.70;99.90
4090;DHT22;2059;48.538;12.146;2022-08-19T23:40:48;19.70;99.90
4090;DHT22;2059;48.538;12.146;2022-08-19T23:45:51;19.40;99.90
4090;DHT22;2059;48.538;12.146;2022-08-19T23:50:53;19.30;99.90
4090;DHT22;2059;48.538;12.146;2022-08-19T23:55:57;19.30;99.90
